createdAt,value
2018-04-11T00:00:09.203Z,7.72
2018-04-11T00:02:37.831Z,7.76
2018-04-11T00:05:06.132Z,7.80
2018-04-11T00:07:34.256Z,7.90
2018-04-11T00:10:01.932Z,7.77
2018-04-11T00:12:29.468Z,7.86
2018-04-11T00:14:57.622Z,7.83
2018-04-11T00:17:26.814Z,7.78
2018-04-11T00:19:56.057Z,7.70
2018-04-11T00:22:23.605Z,7.67
2018-04-11T00:24:51.987Z,7.70
2018-04-11T00:27:19.771Z,7.68
2018-04-11T00:29:49.035Z,7.55
2018-04-11T00:32:20.463Z,7.32
2018-04-11T00:34:48.099Z,7.31
2018-04-11T00:37:15.639Z,7.34
2018-04-11T00:39:43.198Z,7.31
2018-04-11T00:42:10.716Z,7.17
2018-04-11T00:44:38.990Z,7.24
2018-04-11T00:47:06.511Z,7.21
2018-04-11T00:49:34.063Z,7.19
2018-04-11T00:52:01.591Z,7.12
2018-04-11T00:54:29.344Z,6.99
2018-04-11T00:56:56.846Z,6.97
2018-04-11T00:59:24.389Z,6.92
2018-04-11T01:01:51.902Z,6.93
2018-04-11T01:04:19.987Z,6.77
2018-04-11T01:06:47.540Z,6.92
2018-04-11T01:09:15.105Z,6.76
2018-04-11T01:11:42.636Z,6.82
2018-04-11T01:14:10.182Z,6.84
2018-04-11T01:16:37.698Z,6.70
2018-04-11T01:19:05.460Z,6.34
2018-04-11T01:21:33.095Z,6.32
2018-04-11T01:24:00.665Z,6.68
2018-04-11T01:26:28.220Z,6.84
2018-04-11T01:28:55.775Z,6.92
2018-04-11T01:31:23.334Z,6.92
2018-04-11T01:33:50.879Z,6.91
2018-04-11T01:36:18.765Z,6.83
2018-04-11T01:38:46.298Z,6.80
2018-04-11T01:41:13.860Z,6.92
2018-04-11T01:43:42.317Z,6.91
2018-04-11T01:46:09.866Z,6.90
2018-04-11T01:48:37.379Z,6.82
2018-04-11T01:51:04.947Z,6.94
2018-04-11T01:53:32.465Z,6.89
2018-04-11T01:56:00.036Z,6.90
2018-04-11T01:58:27.570Z,6.67
2018-04-11T02:00:55.175Z,6.59
2018-04-11T02:03:22.691Z,6.56
2018-04-11T02:05:50.238Z,6.55
2018-04-11T02:08:17.774Z,6.75
2018-04-11T02:10:45.349Z,6.70
2018-04-11T02:13:12.871Z,6.66
2018-04-11T02:15:40.422Z,6.74
2018-04-11T02:18:07.946Z,6.57
2018-04-11T02:20:35.526Z,6.58
2018-04-11T02:23:03.057Z,6.53
2018-04-11T02:25:30.605Z,6.34
2018-04-11T02:27:58.127Z,5.92
2018-04-11T02:30:25.679Z,5.56
2018-04-11T02:32:53.212Z,5.81
2018-04-11T02:35:20.765Z,5.52
2018-04-11T02:37:48.319Z,5.65
2018-04-11T02:40:15.875Z,5.92
2018-04-11T02:42:43.394Z,6.12
2018-04-11T02:45:10.954Z,5.95
2018-04-11T02:47:38.525Z,5.98
2018-04-11T02:50:06.109Z,6.06
2018-04-11T02:52:33.628Z,5.89
2018-04-11T02:55:01.182Z,5.77
2018-04-11T02:57:28.702Z,5.85
2018-04-11T02:59:56.234Z,5.73
2018-04-11T03:02:23.788Z,5.76
2018-04-11T03:04:51.315Z,5.55
2018-04-11T03:07:18.956Z,5.60
2018-04-11T03:09:46.482Z,5.57
2018-04-11T03:12:14.036Z,5.37
2018-04-11T03:14:41.554Z,5.30
2018-04-11T03:17:09.914Z,5.46
2018-04-11T03:19:37.440Z,5.54
2018-04-11T03:22:04.994Z,5.64
2018-04-11T03:24:32.596Z,5.51
2018-04-11T03:27:00.167Z,5.58
2018-04-11T03:29:27.691Z,5.25
2018-04-11T03:31:55.278Z,5.13
2018-04-11T03:34:22.809Z,5.24
2018-04-11T03:36:50.374Z,5.31
2018-04-11T03:39:17.899Z,5.54
2018-04-11T03:41:45.456Z,5.62
2018-04-11T03:44:12.980Z,5.67
2018-04-11T03:46:40.531Z,5.78
2018-04-11T03:49:08.065Z,5.80
2018-04-11T03:51:35.609Z,5.76
2018-04-11T03:54:03.133Z,5.54
2018-04-11T03:56:30.750Z,5.62
2018-04-11T03:58:58.309Z,5.47
2018-04-11T04:01:25.868Z,5.54
2018-04-11T04:03:53.386Z,5.61
2018-04-11T04:06:20.950Z,5.70
2018-04-11T04:08:48.478Z,5.49
2018-04-11T04:11:16.026Z,5.40
2018-04-11T04:13:55.299Z,5.47
2018-04-11T04:16:34.375Z,5.56
2018-04-11T04:19:13.671Z,5.59
2018-04-11T04:21:41.225Z,5.57
2018-04-11T04:24:08.770Z,5.64
2018-04-11T04:26:36.333Z,5.53
2018-04-11T04:29:03.875Z,5.61
2018-04-11T04:31:31.429Z,5.57
2018-04-11T04:33:58.950Z,5.63
2018-04-11T04:36:26.503Z,5.74
2018-04-11T04:38:54.051Z,5.91
2018-04-11T04:41:21.580Z,6.00
2018-04-11T04:43:49.188Z,5.95
2018-04-11T04:46:16.715Z,5.90
2018-04-11T04:48:44.290Z,6.00
2018-04-11T04:51:12.263Z,5.90
2018-04-11T04:53:39.821Z,6.09
2018-04-11T04:56:07.340Z,5.76
2018-04-11T04:58:34.897Z,5.79
2018-04-11T05:01:02.431Z,5.69
2018-04-11T05:03:29.994Z,5.82
2018-04-11T05:05:57.576Z,5.57
2018-04-11T05:08:27.541Z,5.63
2018-04-11T05:10:56.539Z,5.71
2018-04-11T05:13:27.789Z,5.81
2018-04-11T05:15:56.671Z,5.93
2018-04-11T05:18:27.391Z,5.90
2018-04-11T05:20:55.086Z,5.76
2018-04-11T05:23:23.255Z,5.93
2018-04-11T05:25:50.932Z,5.83
2018-04-11T05:28:21.805Z,5.51
2018-04-11T05:30:49.653Z,5.68
2018-04-11T05:33:17.482Z,5.77
2018-04-11T05:35:45.424Z,5.84
2018-04-11T05:38:14.028Z,5.87
2018-04-11T05:40:42.757Z,5.86
2018-04-11T05:43:10.540Z,5.76
2018-04-11T05:45:38.544Z,5.66
2018-04-11T05:48:06.156Z,5.86
2018-04-11T05:50:36.020Z,5.84
2018-04-11T05:53:07.505Z,6.02
2018-04-11T05:55:37.738Z,6.03
2018-04-11T05:58:05.467Z,6.01
2018-04-11T06:00:32.981Z,6.04
2018-04-11T06:03:00.835Z,6.02
2018-04-11T06:05:29.664Z,6.13
2018-04-11T06:07:57.250Z,6.12
2018-04-11T06:10:24.779Z,6.07
2018-04-11T06:12:52.331Z,6.11
2018-04-11T06:15:19.854Z,6.12
2018-04-11T06:17:51.972Z,5.93
2018-04-11T06:20:19.488Z,6.01
2018-04-11T06:22:47.052Z,6.08
2018-04-11T06:25:15.361Z,6.25
2018-04-11T06:27:42.994Z,6.51
2018-04-11T06:30:10.559Z,6.56
2018-04-11T06:32:38.078Z,6.30
2018-04-11T06:35:05.681Z,6.36
2018-04-11T06:37:33.186Z,6.49
2018-04-11T06:40:00.735Z,6.56
2018-04-11T06:42:28.286Z,6.52
2018-04-11T06:44:55.880Z,6.50
2018-04-11T06:47:23.457Z,6.60
2018-04-11T06:49:50.994Z,6.72
2018-04-11T06:52:18.515Z,6.69
2018-04-11T06:54:46.056Z,6.69
2018-04-11T06:57:13.603Z,6.76
2018-04-11T06:59:41.199Z,6.75
2018-04-11T07:02:08.730Z,6.92
2018-04-11T07:04:36.304Z,6.97
2018-04-11T07:07:03.839Z,7.09
2018-04-11T07:09:31.398Z,6.86
2018-04-11T07:14:32.625Z,6.75
2018-04-11T07:17:00.142Z,7.15
2018-04-11T07:19:27.704Z,7.16
2018-04-11T07:21:55.228Z,7.24
2018-04-11T07:24:22.804Z,6.97
2018-04-11T07:26:50.319Z,7.13
2018-04-11T07:29:17.912Z,7.43
2018-04-11T07:31:46.405Z,7.45
2018-04-11T07:34:13.962Z,7.13
2018-04-11T07:36:41.605Z,7.56
2018-04-11T07:39:09.158Z,7.44
2018-04-11T07:41:36.787Z,7.26
2018-04-11T07:44:04.422Z,7.33
2018-04-11T07:46:31.954Z,7.36
2018-04-11T07:48:59.525Z,7.25
2018-04-11T07:51:27.051Z,7.77
2018-04-11T07:53:54.619Z,8.09
2018-04-11T07:56:22.143Z,7.60
2018-04-11T07:58:50.426Z,7.51
2018-04-11T08:01:17.970Z,7.46
2018-04-11T08:03:46.224Z,7.53
2018-04-11T08:06:13.766Z,7.92
2018-04-11T08:08:41.310Z,8.02
2018-04-11T08:11:08.881Z,8.07
2018-04-11T08:13:36.441Z,8.45
2018-04-11T08:16:04.012Z,8.62
2018-04-11T08:18:31.550Z,8.41
2018-04-11T08:20:59.128Z,8.77
2018-04-11T08:23:30.368Z,8.74
2018-04-11T08:26:02.218Z,8.69
2018-04-11T08:28:31.773Z,8.55
2018-04-11T08:31:02.553Z,8.74
2018-04-11T08:33:33.726Z,8.77
2018-04-11T08:36:03.338Z,8.33
2018-04-11T08:38:34.073Z,8.57
2018-04-11T08:41:04.951Z,8.75
2018-04-11T08:43:32.664Z,8.79
2018-04-11T08:46:02.673Z,8.86
2018-04-11T08:48:31.413Z,8.97
2018-04-11T08:51:01.969Z,9.12
2018-04-11T08:53:32.646Z,9.21
2018-04-11T08:56:02.810Z,9.18
2018-04-11T08:58:31.051Z,9.21
2018-04-11T09:01:00.374Z,9.32
2018-04-11T09:03:28.616Z,9.26
2018-04-11T09:05:56.190Z,9.24
2018-04-11T09:08:23.816Z,9.46
2018-04-11T09:10:51.717Z,9.73
2018-04-11T09:13:19.625Z,9.77
2018-04-11T09:15:51.961Z,9.86
2018-04-11T09:18:22.445Z,9.96
2018-04-11T09:20:51.213Z,10.16
2018-04-11T09:23:18.848Z,10.18
2018-04-11T09:25:46.437Z,10.24
2018-04-11T09:28:16.666Z,10.31
2018-04-11T09:30:44.519Z,10.41
2018-04-11T09:33:14.846Z,10.60
2018-04-11T09:35:45.376Z,10.72
2018-04-11T09:38:14.747Z,10.75
2018-04-11T09:40:45.701Z,10.92
2018-04-11T09:43:15.927Z,11.03
2018-04-11T09:45:48.626Z,11.23
2018-04-11T09:48:16.358Z,11.33
2018-04-11T09:50:44.819Z,11.38
2018-04-11T09:53:13.837Z,11.60
2018-04-11T09:55:41.487Z,11.72
2018-04-11T09:58:11.752Z,11.96
2018-04-11T10:00:39.895Z,11.85
2018-04-11T10:03:08.800Z,12.07
2018-04-11T10:05:39.894Z,12.09
2018-04-11T10:08:07.874Z,12.22
2018-04-11T10:10:35.471Z,12.37
2018-04-11T10:13:03.692Z,12.43
2018-04-11T10:15:31.565Z,12.64
2018-04-11T10:17:59.339Z,12.81
2018-04-11T10:20:28.539Z,12.76
2018-04-11T10:22:57.779Z,12.81
2018-04-11T10:25:29.740Z,12.93
2018-04-11T10:27:58.247Z,13.11
2018-04-11T10:30:26.554Z,13.42
2018-04-11T10:32:54.203Z,13.53
2018-04-11T10:35:21.759Z,13.46
2018-04-11T10:37:52.005Z,13.49
2018-04-11T10:40:20.369Z,13.54
2018-04-11T10:42:47.971Z,13.59
2018-04-11T10:45:15.805Z,13.57
2018-04-11T10:47:43.903Z,13.51
2018-04-11T10:50:14.216Z,13.58
2018-04-11T10:52:41.918Z,13.70
2018-04-11T10:55:12.223Z,13.87
2018-04-11T10:57:40.044Z,14.19
2018-04-11T11:00:12.820Z,14.05
2018-04-11T11:02:40.602Z,14.15
2018-04-11T11:05:08.149Z,14.49
2018-04-11T11:07:35.690Z,14.32
2018-04-11T11:10:03.204Z,14.29
2018-04-11T11:12:30.770Z,14.30
2018-04-11T11:14:58.286Z,14.55
2018-04-11T11:17:25.841Z,14.61
2018-04-11T11:20:08.950Z,14.56
2018-04-11T11:22:36.502Z,14.98
2018-04-11T11:25:04.041Z,14.98
2018-04-11T11:27:31.697Z,15.03
2018-04-11T11:29:59.231Z,15.04
2018-04-11T11:32:26.793Z,15.59
2018-04-11T11:34:54.326Z,15.43
2018-04-11T11:37:21.888Z,15.30
2018-04-11T11:39:49.411Z,15.27
2018-04-11T11:42:16.978Z,15.52
2018-04-11T11:44:44.513Z,15.72
2018-04-11T11:47:12.093Z,15.99
2018-04-11T11:49:39.616Z,15.61
2018-04-11T11:52:07.485Z,15.63
2018-04-11T11:54:35.257Z,15.74
2018-04-11T11:57:02.823Z,15.73
2018-04-11T11:59:30.456Z,15.81
2018-04-11T12:01:58.006Z,15.77
2018-04-11T12:04:25.551Z,15.87
2018-04-11T12:06:53.182Z,15.82
2018-04-11T12:09:20.711Z,15.91
2018-04-11T12:11:48.292Z,16.05
2018-04-11T12:14:15.866Z,16.26
2018-04-11T12:16:44.374Z,16.06
2018-04-11T12:19:11.899Z,16.16
2018-04-11T12:21:39.497Z,16.33
2018-04-11T12:24:07.057Z,16.30
2018-04-11T12:26:34.781Z,16.30
2018-04-11T12:29:02.304Z,16.75
2018-04-11T12:31:30.005Z,16.85
2018-04-11T13:37:08.942Z,18.91
2018-04-11T13:39:36.534Z,18.89
2018-04-11T13:42:04.090Z,18.81
2018-04-11T13:44:31.632Z,19.14
2018-04-11T13:46:59.228Z,18.94
2018-04-11T13:49:26.890Z,18.73
2018-04-11T13:51:54.507Z,18.55
2018-04-11T13:54:22.061Z,18.48
2018-04-11T13:56:49.661Z,18.31
2018-04-11T13:59:17.764Z,18.37
2018-04-11T14:01:45.402Z,18.50
2018-04-11T14:04:12.993Z,18.69
2018-04-11T14:06:40.496Z,19.05
2018-04-11T14:09:08.291Z,18.97
2018-04-11T14:11:36.385Z,19.08
2018-04-11T14:14:04.053Z,19.34
2018-04-11T14:16:31.820Z,19.46
2018-04-11T14:18:59.383Z,19.53
2018-04-11T14:21:27.411Z,19.46
2018-04-11T14:23:55.212Z,19.21
2018-04-11T14:26:22.814Z,19.17
2018-04-11T14:28:50.500Z,19.16
2018-04-11T14:31:18.018Z,19.15
2018-04-11T14:33:45.570Z,19.01
2018-04-11T14:36:13.903Z,19.03
2018-04-11T14:38:41.923Z,18.81
2018-04-11T14:41:09.527Z,18.96
2018-04-11T14:43:37.199Z,18.92
2018-04-11T14:46:04.730Z,19.04
2018-04-11T14:48:32.289Z,19.14
2018-04-11T14:50:59.955Z,19.16
2018-04-11T14:53:27.836Z,19.18
2018-04-11T14:55:55.910Z,19.12
2018-04-11T14:58:23.493Z,19.13
2018-04-11T15:00:51.023Z,18.96
2018-04-11T15:03:18.572Z,18.92
2018-04-11T15:05:46.093Z,19.48
2018-04-11T15:08:14.101Z,20.24
2018-04-11T15:10:41.661Z,20.00
2018-04-11T15:13:09.231Z,20.26
2018-04-11T15:15:36.781Z,20.66
2018-04-11T15:18:04.322Z,20.99
2018-04-11T15:20:34.188Z,21.40
2018-04-11T15:23:01.890Z,21.39
2018-04-11T15:25:29.420Z,21.94
2018-04-11T15:27:56.994Z,21.31
2018-04-11T15:30:24.506Z,20.86
2018-04-11T15:32:52.023Z,20.33
2018-04-11T15:35:19.578Z,20.34
2018-04-11T15:37:47.127Z,19.82
2018-04-11T15:40:14.707Z,19.53
2018-04-11T15:42:42.216Z,19.36
2018-04-11T15:45:09.758Z,19.03
2018-04-11T15:47:37.287Z,19.89
2018-04-11T15:50:04.841Z,21.00
2018-04-11T15:52:32.365Z,21.37
2018-04-11T15:54:59.921Z,21.94
2018-04-11T15:57:27.443Z,20.70
2018-04-11T15:59:56.698Z,21.25
2018-04-11T16:02:25.274Z,19.70
2018-04-11T16:04:53.746Z,19.31
2018-04-11T16:07:21.301Z,19.34
2018-04-11T16:09:48.858Z,18.91
2018-04-11T16:12:16.383Z,18.76
2018-04-11T16:14:43.938Z,18.65
2018-04-11T16:17:12.135Z,18.54
2018-04-11T16:19:39.787Z,18.35
2018-04-11T16:22:07.338Z,18.58
2018-04-11T16:24:34.916Z,18.53
2018-04-11T16:27:02.449Z,18.62
2018-04-11T16:29:30.003Z,18.81
2018-04-11T16:31:57.687Z,20.46
2018-04-11T16:34:25.353Z,20.55
2018-04-11T16:36:52.881Z,21.05
2018-04-11T16:39:20.484Z,21.28
2018-04-11T16:41:48.009Z,21.02
2018-04-11T16:44:15.565Z,20.89
2018-04-11T16:46:43.118Z,20.75
2018-04-11T16:49:10.694Z,21.03
2018-04-11T16:51:42.609Z,20.83
2018-04-11T16:54:10.948Z,20.76
2018-04-11T16:56:45.299Z,20.75
2018-04-11T16:59:17.903Z,20.94
2018-04-11T17:01:52.775Z,20.76
2018-04-11T17:04:24.306Z,20.63
2018-04-11T17:06:59.320Z,20.39
2018-04-11T17:09:33.523Z,20.06
2018-04-11T17:12:04.875Z,20.22
2018-04-11T17:14:41.028Z,20.03
2018-04-11T17:17:17.344Z,19.54
2018-04-11T17:19:52.226Z,19.58
2018-04-11T17:25:20.697Z,19.19
2018-04-11T17:33:45.958Z,19.17
2018-04-11T17:36:15.931Z,19.11
2018-04-11T17:38:45.538Z,19.20
2018-04-11T17:41:14.038Z,19.20
2018-04-11T17:43:49.393Z,18.75
2018-04-11T17:46:20.093Z,18.52
2018-04-11T17:48:48.644Z,18.32
2018-04-11T17:51:16.227Z,18.07
2018-04-11T17:53:45.781Z,17.73
2018-04-11T17:56:16.346Z,17.74
2018-04-11T17:58:45.106Z,17.38
2018-04-11T18:01:14.359Z,17.12
2018-04-11T18:03:43.069Z,17.26
2018-04-11T18:06:10.745Z,17.18
2018-04-11T18:08:38.253Z,16.93
2018-04-11T18:11:05.817Z,16.83
2018-04-11T18:13:33.371Z,16.71
2018-04-11T18:16:00.989Z,16.58
2018-04-11T18:18:28.502Z,16.38
2018-04-11T18:20:56.045Z,16.37
2018-04-11T18:23:23.545Z,16.15
2018-04-11T18:25:51.110Z,16.04
2018-04-11T18:28:18.634Z,16.08
2018-04-11T18:30:46.236Z,15.95
2018-04-11T18:33:13.766Z,15.83
2018-04-11T18:35:41.315Z,15.75
2018-04-11T18:38:08.865Z,15.65
2018-04-11T18:40:36.418Z,15.47
2018-04-11T18:43:03.948Z,15.46
2018-04-11T18:45:31.465Z,15.37
2018-04-11T18:47:59.025Z,15.33
2018-04-11T18:50:26.554Z,15.24
2018-04-11T18:52:54.107Z,15.15
2018-04-11T18:55:21.687Z,15.13
2018-04-11T18:57:49.225Z,15.07
2018-04-11T19:00:16.759Z,15.03
2018-04-11T19:02:44.316Z,14.93
2018-04-11T19:05:11.848Z,14.78
2018-04-11T19:07:39.395Z,14.78
2018-04-11T19:10:06.905Z,14.69
2018-04-11T19:12:34.475Z,14.61
2018-04-11T19:15:02.078Z,14.52
2018-04-11T19:17:29.629Z,14.47
2018-04-11T19:19:57.152Z,14.43
2018-04-11T19:22:24.701Z,14.35
2018-04-11T19:24:52.865Z,14.36
2018-04-11T19:27:22.304Z,14.34
2018-04-11T19:29:49.892Z,14.23
2018-04-11T19:32:17.443Z,14.27
2018-04-11T19:34:45.005Z,14.12
2018-04-11T19:37:12.668Z,14.11
2018-04-11T19:39:40.209Z,14.07
2018-04-11T19:42:08.102Z,14.07
2018-04-11T19:44:35.909Z,13.86
2018-04-11T19:47:04.960Z,13.88
2018-04-11T19:49:33.123Z,13.90
2018-04-11T19:52:00.792Z,13.83
2018-04-11T19:54:28.612Z,13.85
2018-04-11T19:56:56.168Z,13.85
2018-04-11T19:59:24.243Z,13.70
2018-04-11T20:01:51.958Z,13.68
2018-04-11T20:04:19.471Z,13.75
2018-04-11T20:06:47.027Z,13.75
2018-04-11T20:09:14.547Z,13.68
2018-04-11T20:11:42.101Z,13.61
2018-04-11T20:14:17.965Z,13.70
2018-04-11T20:16:45.599Z,13.66
2018-04-11T20:19:13.158Z,13.61
2018-04-11T20:21:40.690Z,13.62
2018-04-11T20:24:08.290Z,13.60
2018-04-11T20:26:36.344Z,13.56
2018-04-11T20:29:05.046Z,13.47
2018-04-11T20:31:32.597Z,13.54
2018-04-11T20:34:00.152Z,13.58
2018-04-11T20:36:27.713Z,13.52
2018-04-11T20:38:55.271Z,13.47
2018-04-11T20:41:22.807Z,13.49
2018-04-11T20:43:50.390Z,13.37
2018-04-11T20:46:17.962Z,13.28
2018-04-11T20:48:45.614Z,13.33
2018-04-11T20:51:13.172Z,13.31
2018-04-11T20:53:40.719Z,13.25
2018-04-11T20:56:10.300Z,13.17
2018-04-11T20:58:38.070Z,13.10
2018-04-11T21:01:06.525Z,13.02
2018-04-11T21:03:34.208Z,13.17
2018-04-11T21:06:01.858Z,13.08
2018-04-11T21:08:30.684Z,12.98
2018-04-11T21:10:58.255Z,12.96
2018-04-11T21:13:25.837Z,12.94
2018-04-11T21:15:53.368Z,12.96
2018-04-11T21:18:22.100Z,12.90
2018-04-11T21:20:49.722Z,12.90
2018-04-11T21:23:17.273Z,12.83
2018-04-11T21:25:45.547Z,12.79
2018-04-11T21:28:13.202Z,12.74
2018-04-11T21:30:40.731Z,12.75
2018-04-11T21:33:08.305Z,12.71
2018-04-11T21:35:35.834Z,12.66
2018-04-11T21:38:03.462Z,12.63
2018-04-11T21:40:31.021Z,12.65
2018-04-11T21:42:58.678Z,12.51
2018-04-11T21:45:26.218Z,12.49
2018-04-11T21:47:53.770Z,12.40
2018-04-11T21:50:21.295Z,12.33
2018-04-11T21:52:48.876Z,12.15
2018-04-11T21:55:16.398Z,12.04
2018-04-11T21:57:44.954Z,11.86
2018-04-11T22:00:16.175Z,11.80
2018-04-11T22:02:47.681Z,11.75
2018-04-11T22:05:15.530Z,11.86
2018-04-11T22:07:43.056Z,11.90
2018-04-11T22:10:11.544Z,11.98
2018-04-11T22:12:39.223Z,12.14
2018-04-11T22:15:07.843Z,12.12
2018-04-11T22:17:35.569Z,12.09
2018-04-11T22:20:03.243Z,12.15
2018-04-11T22:22:30.948Z,12.25
2018-04-11T22:24:58.662Z,12.17
2018-04-11T22:27:26.727Z,12.17
2018-04-11T22:29:55.442Z,12.16
2018-04-11T22:32:23.154Z,12.11
2018-04-11T22:34:51.741Z,12.15
2018-04-11T22:37:19.320Z,12.24
2018-04-11T22:39:46.983Z,12.35
2018-04-11T22:42:14.586Z,12.37
2018-04-11T22:44:42.213Z,12.38
2018-04-11T22:47:09.773Z,12.40
2018-04-11T22:49:37.689Z,12.37
2018-04-11T22:52:05.301Z,12.43
2018-04-11T22:54:32.955Z,12.41
2018-04-11T22:57:00.853Z,12.41
2018-04-11T22:59:29.579Z,12.37
2018-04-11T23:01:57.186Z,12.34
2018-04-11T23:04:26.637Z,12.30
2018-04-11T23:06:54.344Z,12.34
2018-04-11T23:09:22.741Z,12.31
2018-04-11T23:11:50.276Z,12.34
2018-04-11T23:14:20.272Z,12.34
2018-04-11T23:16:48.278Z,12.23
2018-04-11T23:19:15.924Z,12.33
2018-04-11T23:21:44.814Z,12.37
2018-04-11T23:24:12.477Z,12.27
2018-04-11T23:26:40.253Z,12.25
2018-04-11T23:29:07.911Z,12.26
2018-04-11T23:31:35.475Z,12.37
2018-04-11T23:34:03.081Z,12.37
2018-04-11T23:36:30.682Z,12.31
2018-04-11T23:38:58.241Z,12.31
2018-04-11T23:41:25.801Z,12.32
2018-04-11T23:43:53.480Z,12.36
2018-04-11T23:46:21.026Z,12.34
2018-04-11T23:48:48.553Z,12.29
2018-04-11T23:51:16.143Z,12.32
2018-04-11T23:53:43.702Z,12.32
2018-04-11T23:56:11.283Z,12.27
2018-04-11T23:58:38.893Z,12.28
